Time;durP1;ratioP1;P1;durP2;ratioP2;P2;SDS_P1;SDS_P2;PMS_P1;PMS_P2;Temp;Humidity;BMP_temperature;BMP_pressure;BME280_temperature;BME280_humidity;BME280_pressure;Samples;Min_cycle;Max_cycle;Signal;HPM_P1;HPM_P2
2021/07/12 00:01:14;;;;;;;6.07;5.47;;;;;;;20.57;68.32;100204.72;154031;1101;103128;-81
2021/07/12 00:04:19;;;;;;;5.50;5.00;;;;;;;20.54;68.59;100205.14;153937;1101;103547;-76
2021/07/12 00:07:24;;;;;;;5.23;4.73;;;;;;;20.57;68.63;100203.86;154034;1101;103240;-81
2021/07/12 00:10:30;;;;;;;6.00;5.40;;;;;;;20.61;68.54;100205.11;153980;1101;103349;-79
2021/07/12 00:13:35;;;;;;;6.50;5.90;;;;;;;20.53;68.64;100199.94;154029;1101;103139;-78
2021/07/12 00:16:40;;;;;;;9.25;5.90;;;;;;;20.46;68.88;100202.71;154009;1101;103198;-78
2021/07/12 00:19:46;;;;;;;10.00;7.03;;;;;;;20.44;69.02;100203.96;154006;1101;103192;-78
2021/07/12 00:22:52;;;;;;;6.90;5.47;;;;;;;20.40;69.19;100203.59;154026;1101;103115;-79
2021/07/12 00:25:57;;;;;;;6.10;5.50;;;;;;;20.42;69.58;100206.06;154035;1101;103374;-80
2021/07/12 00:29:02;;;;;;;6.85;6.20;;;;;;;20.44;69.23;100209.38;154011;1101;103275;-80
2021/07/12 00:32:09;;;;;;;7.73;6.97;;;;;;;20.48;69.31;100199.78;153950;1101;103192;-80
2021/07/12 00:35:16;;;;;;;7.53;6.80;;;;;;;20.47;69.38;100195.40;154074;1101;103131;-78
2021/07/12 00:38:21;;;;;;;9.87;6.57;;;;;;;20.39;69.54;100197.32;154107;1101;103217;-80
2021/07/12 00:41:27;;;;;;;6.30;5.55;;;;;;;20.34;69.63;100188.19;153960;1096;103279;-79
2021/07/12 00:44:32;;;;;;;6.40;5.80;;;;;;;20.38;69.86;100190.26;153985;1101;103192;-80
2021/07/12 00:47:38;;;;;;;7.47;6.63;;;;;;;20.43;69.83;100188.77;153960;1101;103295;-82
2021/07/12 00:50:46;;;;;;;8.43;6.93;;;;;;;20.44;69.69;100172.29;153947;1096;103126;-83
2021/07/12 00:53:51;;;;;;;9.57;8.33;;;;;;;20.46;69.98;100175.61;154093;1101;103704;-82
2021/07/12 00:57:06;;;;;;;10.03;8.73;;;;;;;20.47;69.81;100171.83;154132;1096;103295;-82
2021/07/12 01:00:16;;;;;;;10.03;8.57;;;;;;;20.47;70.01;100168.30;154086;1096;103154;-81
2021/07/12 01:03:27;;;;;;;10.97;8.83;;;;;;;20.42;70.12;100176.25;154019;1101;103313;-81
2021/07/12 01:06:34;;;;;;;9.37;8.43;;;;;;;20.39;70.07;100178.34;153947;1095;103582;-79
2021/07/12 01:09:44;;;;;;;10.23;8.43;;;;;;;20.36;70.42;100157.13;154000;1096;103090;-81
2021/07/12 01:13:00;;;;;;;8.90;8.00;;;;;;;20.35;70.45;100157.34;154000;1101;103273;-78
2021/07/12 01:16:20;;;;;;;8.70;7.80;;;;;;;20.36;70.55;100149.00;154040;1096;103554;-78
2021/07/12 01:20:06;;;;;;;9.10;7.03;;;;;;;20.32;70.49;100146.93;153978;1101;103141;-79
2021/07/12 01:23:21;;;;;;;9.93;6.50;;;;;;;20.27;70.48;100136.77;153909;1096;103250;-76
2021/07/12 01:26:57;;;;;;;7.80;6.50;;;;;;;20.24;70.37;100150.73;154039;1101;103115;-76
2021/07/12 01:30:12;;;;;;;7.33;6.47;;;;;;;20.21;70.49;100148.48;153996;1101;103312;-76
2021/07/12 01:33:21;;;;;;;9.23;7.23;;;;;;;20.22;70.46;100142.00;154061;1101;103498;-77
2021/07/12 01:36:31;;;;;;;9.23;7.30;;;;;;;20.14;70.66;100144.98;153973;1101;103214;-78
2021/07/12 01:39:42;;;;;;;7.50;6.70;;;;;;;20.09;70.77;100142.09;154188;1096;103126;-81
2021/07/12 01:42:59;;;;;;;6.90;5.73;;;;;;;20.05;70.77;100143.58;154739;1101;103204;-79
2021/07/12 01:46:13;;;;;;;7.37;6.57;;;;;;;20.07;70.59;100149.60;153988;1096;103099;-81
2021/07/12 01:49:26;;;;;;;11.30;7.73;;;;;;;20.03;70.55;100137.55;153965;1096;103113;-80
2021/07/12 01:52:39;;;;;;;9.13;8.20;;;;;;;20.00;70.52;100133.41;154037;1101;103102;-79
2021/07/12 01:55:56;;;;;;;8.50;7.30;;;;;;;19.89;70.69;100137.63;154085;1101;103199;-80
2021/07/12 01:59:07;;;;;;;7.83;6.60;;;;;;;19.74;70.85;100134.38;153932;1095;103161;-80
2021/07/12 02:02:15;;;;;;;7.57;6.13;;;;;;;19.71;71.10;100130.20;153939;1101;103573;-75
2021/07/12 02:05:31;;;;;;;7.57;6.50;;;;;;;19.71;70.75;100134.80;154021;1096;103143;-74
2021/07/12 02:08:40;;;;;;;7.40;6.70;;;;;;;19.71;70.78;100137.51;154010;1101;103230;-73
2021/07/12 02:11:50;;;;;;;7.73;6.93;;;;;;;19.69;70.71;100142.28;153960;1096;103138;-72
2021/07/12 02:14:56;;;;;;;7.43;6.73;;;;;;;19.67;70.71;100144.37;154066;1101;103121;-73
2021/07/12 02:18:04;;;;;;;8.07;7.23;;;;;;;19.65;70.81;100135.64;153949;1096;103547;-72
2021/07/12 02:21:18;;;;;;;7.73;6.90;;;;;;;19.64;70.93;100139.41;153964;1096;103148;-73
2021/07/12 02:24:28;;;;;;;8.50;6.47;;;;;;;19.61;70.76;100143.35;153941;1096;103246;-76
2021/07/12 02:27:34;;;;;;;8.20;7.40;;;;;;;19.59;70.98;100145.45;153898;1101;103115;-74
2021/07/12 02:30:42;;;;;;;9.10;6.93;;;;;;;19.52;70.60;100153.61;154013;1095;103235;-76
2021/07/12 02:33:47;;;;;;;8.40;7.07;;;;;;;19.49;70.67;100154.02;153948;1101;103382;-75
2021/07/12 02:36:54;;;;;;;6.97;6.27;;;;;;;19.45;71.02;100158.20;153992;1101;103187;-76
2021/07/12 02:40:12;;;;;;;9.13;7.60;;;;;;;19.40;71.38;100150.74;153924;1101;103191;-72
2021/07/12 02:43:17;;;;;;;7.63;6.87;;;;;;;19.38;71.40;100142.02;153999;1101;103136;-73
2021/07/12 02:46:25;;;;;;;8.10;7.30;;;;;;;19.43;71.32;100144.06;153949;1096;103042;-73
2021/07/12 02:49:33;;;;;;;9.03;8.13;;;;;;;19.47;71.62;100133.64;153972;1096;103339;-73
2021/07/12 02:52:44;;;;;;;8.70;7.87;;;;;;;19.48;71.54;100133.44;153972;1101;103207;-74
2021/07/12 02:55:49;;;;;;;8.20;7.40;;;;;;;19.49;71.70;100131.55;154030;1096;103196;-77
2021/07/12 02:58:54;;;;;;;10.43;8.30;;;;;;;19.46;72.06;100124.70;154026;1101;103219;-74
2021/07/12 03:02:01;;;;;;;8.65;7.85;;;;;;;19.45;72.14;100125.73;153974;1096;103132;-74
2021/07/12 03:05:07;;;;;;;10.60;8.85;;;;;;;19.46;72.12;100127.41;153968;1101;103293;-81
2021/07/12 03:08:21;;;;;;;9.53;8.53;;;;;;;19.51;72.12;100124.87;154242;1101;103136;-76
2021/07/12 03:11:27;;;;;;;9.37;8.37;;;;;;;19.52;72.21;100123.84;154109;1096;103147;-76
2021/07/12 03:14:38;;;;;;;9.37;7.97;;;;;;;19.58;72.29;100124.86;153957;1101;103183;-76
2021/07/12 03:17:49;;;;;;;8.30;7.50;;;;;;;19.67;71.98;100123.56;154024;1096;103227;-76
2021/07/12 03:20:59;;;;;;;7.60;6.90;;;;;;;19.76;71.85;100116.04;153976;1101;103268;-81
2021/07/12 03:24:06;;;;;;;8.10;7.30;;;;;;;19.86;71.88;100127.25;153992;1096;103231;-77
2021/07/12 03:27:21;;;;;;;8.40;7.60;;;;;;;19.97;71.75;100123.82;153967;1101;103215;-76
2021/07/12 03:30:29;;;;;;;7.00;6.30;;;;;;;20.09;71.50;100115.00;153973;1096;103207;-77
2021/07/12 03:33:36;;;;;;;6.70;6.00;;;;;;;20.18;71.63;100116.40;153961;1101;103221;-77
2021/07/12 03:36:44;;;;;;;7.23;6.53;;;;;;;20.33;71.61;100122.33;153942;1101;103215;-77
2021/07/12 03:39:51;;;;;;;9.63;7.43;;;;;;;20.50;71.45;100127.21;154030;1101;103112;-77
2021/07/12 03:42:56;;;;;;;9.70;8.40;;;;;;;20.68;71.34;100129.98;153989;1101;103189;-77
2021/07/12 03:46:02;;;;;;;10.83;7.97;;;;;;;20.85;71.17;100134.84;153951;1096;103220;-77
2021/07/12 03:49:15;;;;;;;8.60;7.80;;;;;;;20.99;71.02;100131.75;154000;1096;103190;-77
2021/07/12 03:52:23;;;;;;;8.07;7.37;;;;;;;21.00;71.15;100138.03;153977;1101;103283;-77
2021/07/12 03:55:29;;;;;;;10.63;7.87;;;;;;;21.07;71.12;100127.92;154043;1093;103141;-77
2021/07/12 03:58:34;;;;;;;9.40;8.50;;;;;;;21.11;71.22;100128.30;153976;1093;103210;-77
2021/07/12 04:01:39;;;;;;;10.27;9.27;;;;;;;21.23;71.36;100128.38;153979;1093;103135;-77
2021/07/12 04:04:44;;;;;;;13.57;10.57;;;;;;;21.28;71.36;100134.78;153982;1093;103161;-76
2021/07/12 04:07:49;;;;;;;9.40;8.40;;;;;;;21.33;71.41;100129.52;153997;1093;103280;-76
2021/07/12 04:10:54;;;;;;;9.50;8.50;;;;;;;21.43;71.36;100130.87;153997;1101;103192;-76
2021/07/12 04:13:59;;;;;;;11.00;8.97;;;;;;;21.49;71.35;100125.38;153936;1101;103238;-77
2021/07/12 04:17:05;;;;;;;9.30;8.37;;;;;;;21.59;71.36;100127.55;153940;1101;103130;-77
2021/07/12 04:20:12;;;;;;;10.80;9.70;;;;;;;21.71;71.33;100124.88;153967;1101;103129;-76
2021/07/12 04:23:18;;;;;;;11.50;9.30;;;;;;;21.84;71.33;100116.55;153967;1093;103259;-76
2021/07/12 04:26:23;;;;;;;11.75;9.50;;;;;;;21.99;71.12;100118.03;154036;1101;103448;-76
2021/07/12 04:29:28;;;;;;;10.53;8.83;;;;;;;22.05;71.00;100111.66;153986;1093;103147;-77
2021/07/12 04:32:33;;;;;;;8.73;7.93;;;;;;;22.15;70.99;100114.63;153960;1101;103145;-77
2021/07/12 04:35:38;;;;;;;8.67;7.87;;;;;;;22.33;70.87;100113.77;153989;1093;103121;-77
2021/07/12 04:38:43;;;;;;;9.40;8.47;;;;;;;22.32;70.87;100118.36;153961;1101;103359;-77
2021/07/12 04:41:48;;;;;;;8.60;7.70;;;;;;;22.49;70.99;100113.06;153989;1101;103249;-78
2021/07/12 04:44:54;;;;;;;8.43;7.30;;;;;;;22.63;70.72;100107.40;154006;1101;103144;-77
2021/07/12 04:47:59;;;;;;;9.87;7.07;;;;;;;22.68;70.41;100099.37;154015;1101;103137;-77
2021/07/12 04:51:04;;;;;;;8.63;7.43;;;;;;;22.83;70.46;100096.17;153988;1101;103156;-77
2021/07/12 04:54:09;;;;;;;7.90;6.97;;;;;;;22.95;70.13;100094.26;154634;1093;103121;-77
2021/07/12 04:57:14;;;;;;;7.73;7.03;;;;;;;22.99;70.10;100095.43;154610;1098;103222;-77
2021/07/12 05:00:21;;;;;;;7.23;6.53;;;;;;;23.17;70.11;100097.19;154603;1098;103096;-78
2021/07/12 05:03:31;;;;;;;9.20;7.80;;;;;;;23.38;69.95;100086.73;154567;1098;103142;-77
2021/07/12 05:06:36;;;;;;;7.07;6.37;;;;;;;23.51;69.64;100087.27;154597;1098;103125;-77
2021/07/12 05:09:41;;;;;;;9.70;7.00;;;;;;;23.63;69.38;100089.13;154576;1098;103225;-78
2021/07/12 05:12:46;;;;;;;7.73;6.87;;;;;;;23.77;69.48;100084.20;154615;1098;103110;-77
2021/07/12 05:15:51;;;;;;;7.80;7.00;;;;;;;23.81;68.67;100080.79;154584;1093;103199;-78
2021/07/12 05:18:57;;;;;;;8.40;6.77;;;;;;;23.81;68.66;100088.96;154609;1093;103102;-78
2021/07/12 05:22:02;;;;;;;8.73;7.30;;;;;;;23.88;68.53;100092.37;154613;1098;103123;-78
2021/07/12 05:25:10;;;;;;;8.45;7.20;;;;;;;23.96;68.65;100085.69;154581;1098;103578;-78
2021/07/12 05:28:15;;;;;;;7.93;6.63;;;;;;;24.02;68.27;100086.58;154637;1098;103184;-78
2021/07/12 05:31:20;;;;;;;7.23;6.53;;;;;;;24.12;68.33;100084.05;154188;1094;103270;-78
2021/07/12 05:34:25;;;;;;;9.93;6.80;;;;;;;24.21;68.72;100092.63;154592;1098;103147;-77
2021/07/12 05:37:30;;;;;;;11.80;8.10;;;;;;;24.25;68.24;100091.05;154622;1098;103135;-78
2021/07/12 05:40:35;;;;;;;11.60;7.40;;;;;;;24.28;67.86;100082.39;154578;1093;103188;-78
2021/07/12 05:43:40;;;;;;;8.10;6.53;;;;;;;24.33;67.84;100082.48;154629;1093;103112;-77
2021/07/12 05:46:45;;;;;;;7.53;6.43;;;;;;;24.37;67.58;100091.81;154616;1093;103192;-77
2021/07/12 05:49:50;;;;;;;8.60;7.80;;;;;;;24.44;67.69;100095.20;154197;1094;103187;-76
2021/07/12 05:52:55;;;;;;;7.47;6.77;;;;;;;24.51;67.94;100084.14;154609;1098;103112;-76
2021/07/12 05:56:00;;;;;;;7.40;6.43;;;;;;;24.59;67.93;100083.72;154562;1094;103273;-76
2021/07/12 05:59:06;;;;;;;8.60;7.13;;;;;;;24.64;67.69;100082.98;154671;1098;103192;-77
2021/07/12 06:02:11;;;;;;;11.63;7.23;;;;;;;24.73;67.86;100086.09;154645;1093;103151;-77
2021/07/12 06:05:16;;;;;;;9.30;7.97;;;;;;;24.76;67.30;100080.97;154624;1098;103113;-76
2021/07/12 06:08:22;;;;;;;8.00;7.20;;;;;;;24.75;67.39;100084.78;154884;1098;103224;-78
2021/07/12 06:11:27;;;;;;;9.30;7.10;;;;;;;24.76;67.51;100077.42;154653;1093;103174;-78
2021/07/12 06:14:32;;;;;;;8.30;7.23;;;;;;;24.79;66.97;100080.47;154668;1098;103188;-80
2021/07/12 06:17:37;;;;;;;8.13;7.27;;;;;;;24.80;67.07;100076.66;154617;1093;103636;-74
2021/07/12 06:20:43;;;;;;;8.47;7.23;;;;;;;24.87;67.68;100071.03;154651;1098;103126;-75
2021/07/12 06:23:48;;;;;;;8.50;7.00;;;;;;;24.91;67.05;100071.36;154747;1098;103237;-74
2021/07/12 06:26:53;;;;;;;8.43;7.63;;;;;;;24.89;67.21;100069.69;154646;1093;103357;-76
2021/07/12 06:29:59;;;;;;;9.20;7.60;;;;;;;24.89;66.98;100075.14;154633;1098;103537;-73
2021/07/12 06:33:05;;;;;;;9.07;7.30;;;;;;;24.88;67.40;100069.94;154198;1098;103166;-76
2021/07/12 06:36:10;;;;;;;8.97;8.13;;;;;;;24.88;67.19;100069.94;154695;1098;103130;-76
2021/07/12 06:39:15;;;;;;;8.80;7.30;;;;;;;24.87;67.48;100060.93;154710;1098;103213;-77
2021/07/12 06:42:20;;;;;;;9.17;7.10;;;;;;;24.91;67.41;100065.89;154660;1094;103197;-77
2021/07/12 06:45:26;;;;;;;8.07;7.30;;;;;;;24.95;67.21;100065.13;154671;1098;103189;-78
2021/07/12 06:48:31;;;;;;;9.35;8.20;;;;;;;25.00;67.05;100062.47;154618;1098;103230;-74
2021/07/12 06:51:45;;;;;;;8.80;7.73;;;;;;;24.98;67.28;100059.17;154590;1098;103211;-75
2021/07/12 06:54:51;;;;;;;11.30;8.70;;;;;;;25.02;66.81;100057.58;154677;1093;103159;-74
2021/07/12 06:57:57;;;;;;;9.10;7.90;;;;;;;25.02;67.32;100063.04;154653;1093;103125;-75
2021/07/12 07:01:02;;;;;;;10.23;9.20;;;;;;;25.12;67.51;100072.45;154677;1094;103192;-76
2021/07/12 07:04:09;;;;;;;8.37;7.67;;;;;;;25.20;67.40;100063.80;154536;1098;103195;-74
2021/07/12 07:07:14;;;;;;;8.80;7.73;;;;;;;25.30;67.23;100063.94;154577;1098;103192;-78
2021/07/12 07:10:19;;;;;;;9.77;8.40;;;;;;;25.43;67.40;100077.20;154685;1093;103572;-82
2021/07/12 07:13:24;;;;;;;10.55;9.45;;;;;;;25.51;67.29;100072.38;154651;1094;103283;-78
2021/07/12 07:16:34;;;;;;;9.97;9.00;;;;;;;25.59;67.29;100063.72;154679;1098;103128;-78
2021/07/12 07:19:39;;;;;;;9.57;8.67;;;;;;;25.66;67.29;100065.16;154623;1098;103556;-77
2021/07/12 07:37:21;;;;;;;9.67;8.67;;;;;;;25.82;67.07;100044.26;154259;1089;103111;-76
2021/07/12 07:40:26;;;;;;;10.20;8.70;;;;;;;25.91;67.13;100046.55;154012;1097;103095;-76
2021/07/12 07:43:31;;;;;;;9.95;8.95;;;;;;;26.05;67.33;100042.30;153992;1101;104151;-76
2021/07/12 07:46:37;;;;;;;10.40;9.40;;;;;;;26.16;66.98;100040.48;154036;1101;103199;-76
2021/07/12 07:49:42;;;;;;;11.70;10.00;;;;;;;26.28;66.94;100034.83;153982;1097;103192;-76
2021/07/12 07:52:47;;;;;;;10.13;8.97;;;;;;;26.40;66.80;100029.98;154052;1095;103192;-76
2021/07/12 07:55:52;;;;;;;10.00;8.73;;;;;;;26.53;66.73;100032.25;154160;1101;103184;-76
2021/07/12 07:58:57;;;;;;;10.23;9.23;;;;;;;26.64;66.50;100033.17;153997;1101;103110;-76
2021/07/12 08:02:03;;;;;;;9.80;8.90;;;;;;;26.71;66.40;100036.48;154083;1101;103484;-76
2021/07/12 08:05:10;;;;;;;9.50;8.60;;;;;;;26.78;66.23;100033.52;154062;1101;103293;-76
2021/07/12 08:08:15;;;;;;;9.63;8.73;;;;;;;26.83;65.95;100026.16;154140;1101;103223;-76
2021/07/12 08:11:20;;;;;;;9.37;8.50;;;;;;;26.81;65.95;100027.49;154117;1101;103131;-76
2021/07/12 08:14:25;;;;;;;9.40;8.50;;;;;;;26.78;66.27;100014.36;153988;1101;103516;-76
2021/07/12 08:17:30;;;;;;;9.90;9.00;;;;;;;26.79;66.10;100016.84;154050;1101;103650;-76
2021/07/12 08:20:35;;;;;;;9.60;8.80;;;;;;;26.82;66.11;100012.73;154046;1096;103132;-76
2021/07/12 08:23:41;;;;;;;9.40;8.67;;;;;;;26.86;65.80;100013.84;154013;1101;103546;-76
2021/07/12 08:26:46;;;;;;;9.20;8.30;;;;;;;26.95;65.74;100011.42;154222;1101;103192;-76
2021/07/12 08:29:51;;;;;;;9.40;8.50;;;;;;;27.07;66.30;100014.74;154005;1096;103107;-76
2021/07/12 08:32:56;;;;;;;10.23;9.33;;;;;;;27.24;65.78;100011.79;154051;1096;103195;-76
2021/07/12 08:36:02;;;;;;;9.33;8.43;;;;;;;27.48;65.52;100008.58;154024;1096;103206;-76
2021/07/12 08:39:07;;;;;;;8.90;8.10;;;;;;;27.77;65.73;100006.14;154042;1101;103199;-76
2021/07/12 08:42:14;;;;;;;9.50;8.55;;;;;;;28.03;65.43;99998.77;153969;1101;103189;-75
2021/07/12 08:45:19;;;;;;;10.17;8.73;;;;;;;28.31;64.57;99994.63;154009;1101;103240;-76
2021/07/12 08:48:24;;;;;;;9.33;8.47;;;;;;;28.50;64.29;99997.57;154047;1101;103253;-76
2021/07/12 08:51:30;;;;;;;9.70;8.85;;;;;;;28.65;64.39;100001.42;154041;1096;103370;-76
2021/07/12 08:54:35;;;;;;;9.10;8.20;;;;;;;28.76;64.21;99994.80;154105;1096;103278;-76
2021/07/12 08:57:41;;;;;;;10.45;9.15;;;;;;;28.82;64.21;99995.60;154076;1101;103099;-76
2021/07/12 09:00:52;;;;;;;9.53;8.73;;;;;;;28.80;63.04;99997.80;153997;1096;103122;-76
2021/07/12 09:04:04;;;;;;;10.33;8.93;;;;;;;28.74;63.24;100002.50;154042;1101;103291;-76
2021/07/12 09:07:11;;;;;;;9.10;8.10;;;;;;;28.63;63.23;100006.38;154025;1096;103128;-75
2021/07/12 09:10:21;;;;;;;8.40;7.70;;;;;;;28.54;63.34;100017.93;154154;1101;103193;-78
2021/07/12 09:13:44;;;;;;;8.67;7.77;;;;;;;28.54;63.14;100012.45;154025;1096;103307;-78
2021/07/12 09:16:51;;;;;;;8.60;7.80;;;;;;;28.63;62.91;100011.86;153982;1101;103218;-77
2021/07/12 09:19:57;;;;;;;8.57;7.87;;;;;;;28.71;62.98;100014.02;154046;1094;103364;-78
2021/07/12 09:23:21;;;;;;;9.00;8.20;;;;;;;28.75;63.14;100015.11;154002;1096;104294;-78
2021/07/12 09:26:26;;;;;;;8.93;8.07;;;;;;;28.89;62.37;100007.92;154081;1101;103223;-78
2021/07/12 09:29:34;;;;;;;8.77;7.97;;;;;;;29.00;62.32;100016.11;154009;1101;103192;-78
2021/07/12 09:32:41;;;;;;;8.70;7.93;;;;;;;29.21;61.29;100006.69;154101;1093;103191;-78
2021/07/12 09:35:46;;;;;;;9.13;8.00;;;;;;;29.29;61.33;100002.52;154076;1093;103483;-78
2021/07/12 09:38:51;;;;;;;8.57;7.27;;;;;;;29.36;61.58;100003.03;154040;1101;103276;-78
2021/07/12 09:41:58;;;;;;;8.50;7.70;;;;;;;29.32;60.93;99996.47;154062;1101;103243;-78
2021/07/12 09:45:05;;;;;;;8.00;7.20;;;;;;;29.36;60.63;100003.84;154043;1101;103597;-78
2021/07/12 09:48:13;;;;;;;7.87;7.17;;;;;;;29.32;60.08;99991.78;154013;1093;103199;-78
2021/07/12 09:51:33;;;;;;;8.15;7.45;;;;;;;29.22;59.81;99991.86;154060;1101;103250;-78
2021/07/12 09:54:40;;;;;;;7.70;7.10;;;;;;;29.28;60.27;99985.22;154060;1101;103188;-78
2021/07/12 09:57:45;;;;;;;9.33;8.33;;;;;;;29.53;60.56;99988.91;154082;1101;103133;-78
2021/07/12 10:01:03;;;;;;;8.10;7.30;;;;;;;29.61;59.52;99977.30;153999;1093;103183;-78
2021/07/12 10:04:09;;;;;;;7.43;6.73;;;;;;;29.70;59.81;99975.58;153970;1093;103150;-78
2021/07/12 10:07:14;;;;;;;7.37;6.77;;;;;;;29.83;59.46;99973.29;154015;1094;103572;-78
2021/07/12 10:10:19;;;;;;;7.03;6.43;;;;;;;29.98;59.01;99967.66;154074;1101;103256;-78
2021/07/12 10:13:25;;;;;;;8.30;7.60;;;;;;;30.14;59.52;99963.66;154048;1093;103206;-78
2021/07/12 10:16:31;;;;;;;7.97;7.27;;;;;;;30.35;59.90;99968.95;154077;1101;103184;-78
2021/07/12 10:19:36;;;;;;;7.73;7.03;;;;;;;30.56;58.59;99966.79;153970;1093;103207;-78
2021/07/12 10:22:43;;;;;;;7.30;6.70;;;;;;;30.68;58.73;99969.16;154030;1101;103274;-78
2021/07/12 10:25:52;;;;;;;8.65;7.85;;;;;;;30.67;58.20;99971.06;154134;1093;103365;-78
2021/07/12 10:29:12;;;;;;;7.07;6.40;;;;;;;30.66;57.64;99963.94;154122;1101;103235;-78
2021/07/12 10:32:19;;;;;;;10.17;6.67;;;;;;;30.74;57.56;99956.95;154090;1101;103269;-78
2021/07/12 10:35:39;;;;;;;7.67;6.90;;;;;;;30.76;57.03;99951.97;154074;1101;103100;-78
2021/07/12 10:38:45;;;;;;;;;;;;;;;30.70;56.92;99947.64;154057;1101;103116;-81
2021/07/12 10:41:51;;;;;;;7.63;5.93;;;;;;;30.70;57.04;99948.45;153956;1101;103187;-81
2021/07/12 10:45:17;;;;;;;8.40;7.10;;;;;;;30.73;56.87;99944.28;154043;1101;103188;-81
2021/07/12 10:48:33;;;;;;;7.30;6.70;;;;;;;30.83;56.68;99951.59;153955;1101;103189;-81
2021/07/12 10:51:41;;;;;;;7.37;6.77;;;;;;;30.79;56.21;99953.30;154035;1094;103186;-81
2021/07/12 10:55:02;;;;;;;7.47;6.70;;;;;;;30.67;55.96;99954.54;154069;1101;103273;-81
2021/07/12 10:58:43;;;;;;;7.57;6.87;;;;;;;30.63;56.05;99949.92;154129;1093;103261;-81
2021/07/12 11:01:48;;;;;;;7.43;6.80;;;;;;;30.60;55.96;99942.24;154035;1101;103159;-81
2021/07/12 11:05:03;;;;;;;7.70;6.90;;;;;;;30.58;56.09;99945.28;153979;1093;103230;-81
2021/07/12 11:08:08;;;;;;;7.57;6.93;;;;;;;30.55;56.29;99945.08;154001;1093;103151;-81
2021/07/12 11:11:34;;;;;;;7.40;6.80;;;;;;;30.46;56.11;99937.45;153987;1093;103286;-81
2021/07/12 11:14:39;;;;;;;7.17;6.57;;;;;;;30.42;56.16;99936.40;154015;1093;103372;-81
2021/07/12 11:18:05;;;;;;;7.33;6.73;;;;;;;30.38;56.39;99926.28;154025;1101;103188;-81
2021/07/12 11:21:12;;;;;;;7.45;6.85;;;;;;;30.36;56.04;99903.73;153992;1093;103192;-81
2021/07/12 11:24:20;;;;;;;7.60;6.87;;;;;;;30.36;55.54;99904.55;153956;1093;103151;-81
2021/07/12 11:27:37;;;;;;;8.00;7.20;;;;;;;30.42;56.01;99906.12;154013;1093;103259;-81
2021/07/12 11:30:42;;;;;;;7.47;6.70;;;;;;;30.44;55.78;99890.13;153982;1093;103369;-81
2021/07/12 11:33:48;;;;;;;7.43;6.73;;;;;;;30.47;55.25;99883.23;154042;1093;103147;-81
2021/07/12 11:37:02;;;;;;;7.30;6.60;;;;;;;30.48;55.36;99895.86;153981;1101;103201;-81
2021/07/12 11:40:09;;;;;;;8.00;6.23;;;;;;;30.47;55.20;99894.23;153951;1101;103213;-81
2021/07/12 11:43:25;;;;;;;6.50;6.00;;;;;;;30.37;54.83;99894.34;154003;1101;103509;-80
2021/07/12 11:46:32;;;;;;;6.77;6.17;;;;;;;30.20;54.96;99890.13;154039;1094;103407;-81
2021/07/12 11:49:37;;;;;;;7.00;6.40;;;;;;;29.99;55.04;99902.47;153996;1093;103189;-81
2021/07/12 11:52:45;;;;;;;7.83;6.77;;;;;;;29.71;55.21;99913.95;154070;1093;103182;-81
2021/07/12 11:55:50;;;;;;;8.07;7.37;;;;;;;29.39;55.87;99914.53;153995;1101;103100;-80
2021/07/12 11:59:00;;;;;;;10.20;8.10;;;;;;;28.97;56.21;99930.42;153976;1101;103263;-80
2021/07/12 12:02:11;;;;;;;8.60;7.70;;;;;;;28.41;55.77;99936.16;154018;1101;103366;-80
2021/07/12 12:05:16;;;;;;;7.80;6.23;;;;;;;27.77;55.50;99929.38;154007;1101;103129;-80
2021/07/12 12:08:22;;;;;;;5.87;5.27;;;;;;;27.14;53.55;99924.13;153966;1101;103137;-80
2021/07/12 12:11:29;;;;;;;5.90;4.30;;;;;;;26.64;53.81;99954.63;154017;1101;103121;-80
2021/07/12 12:14:39;;;;;;;5.60;5.07;;;;;;;26.12;54.94;100021.05;154119;1101;103119;-80
2021/07/12 12:17:49;;;;;;;6.43;5.40;;;;;;;25.53;55.57;99999.18;154072;1093;103253;-80
2021/07/12 12:20:57;;;;;;;5.20;4.70;;;;;;;24.92;55.67;99953.71;154148;1101;103183;-79
2021/07/12 12:24:02;;;;;;;4.20;3.50;;;;;;;24.42;55.60;99927.42;154126;1101;103117;-79
2021/07/12 12:27:07;;;;;;;3.77;3.40;;;;;;;24.09;55.71;99931.88;154114;1093;103540;-79
2021/07/12 12:30:13;;;;;;;4.15;3.10;;;;;;;23.83;56.43;99926.06;154117;1101;103192;-79
2021/07/12 12:33:24;;;;;;;5.27;3.50;;;;;;;23.69;57.44;99919.25;154010;1101;103261;-79
2021/07/12 12:36:31;;;;;;;4.23;3.23;;;;;;;23.52;57.51;99938.33;154050;1101;103293;-79
2021/07/12 12:39:36;;;;;;;4.05;3.30;;;;;;;23.40;57.79;99948.45;153983;1093;103122;-79
2021/07/12 12:42:41;;;;;;;3.40;3.10;;;;;;;23.32;58.33;99938.78;154006;1093;103603;-79
2021/07/12 12:45:52;;;;;;;3.13;2.60;;;;;;;23.25;58.57;99930.78;153961;1101;103183;-80
2021/07/12 12:48:58;;;;;;;4.60;3.30;;;;;;;23.22;58.41;99927.72;153931;1101;103122;-80
2021/07/12 12:52:07;;;;;;;4.20;3.80;;;;;;;23.23;59.29;99922.04;154025;1101;103141;-80
2021/07/12 12:55:14;;;;;;;3.60;3.30;;;;;;;23.31;59.32;99920.81;153957;1101;103123;-80
2021/07/12 12:58:19;;;;;;;3.90;3.20;;;;;;;23.42;59.57;99913.63;153978;1101;103191;-80
2021/07/12 13:01:31;;;;;;;3.63;3.33;;;;;;;23.53;59.85;99910.83;153997;1101;103115;-80
2021/07/12 13:04:47;;;;;;;3.60;2.97;;;;;;;23.64;60.36;99911.02;154079;1101;103289;-78
2021/07/12 13:07:55;;;;;;;3.40;3.10;;;;;;;23.77;59.79;99901.66;154017;1101;103139;-80
2021/07/12 13:11:02;;;;;;;3.30;3.00;;;;;;;24.01;60.31;99905.06;153976;1093;103131;-79
2021/07/12 13:14:07;;;;;;;3.63;3.33;;;;;;;24.27;59.68;99887.98;154020;1093;103132;-79
2021/07/12 13:17:14;;;;;;;4.50;3.60;;;;;;;24.57;60.46;99881.28;154025;1101;103490;-79
2021/07/12 13:20:23;;;;;;;4.20;3.80;;;;;;;24.92;60.12;99884.66;153957;1093;103272;-80
2021/07/12 13:23:30;;;;;;;3.90;3.60;;;;;;;25.22;60.23;99889.61;154064;1101;103116;-80
2021/07/12 13:26:35;;;;;;;4.83;4.37;;;;;;;25.52;60.64;99885.52;153960;1093;103117;-79
2021/07/12 13:29:40;;;;;;;7.05;4.40;;;;;;;25.81;60.80;99895.03;153974;1101;103100;-80
2021/07/12 13:32:47;;;;;;;4.70;4.30;;;;;;;26.01;60.72;99899.02;153949;1101;103144;-79
2021/07/12 13:35:52;;;;;;;5.10;4.57;;;;;;;26.24;61.23;99898.59;154091;1093;103187;-80
2021/07/12 13:38:57;;;;;;;4.73;4.33;;;;;;;26.52;61.22;99904.75;154193;1101;103183;-80
2021/07/12 13:42:04;;;;;;;5.80;5.30;;;;;;;26.78;61.01;99896.66;153975;1101;103163;-80
2021/07/12 13:45:11;;;;;;;6.57;6.00;;;;;;;26.98;61.41;99893.97;153949;1101;103218;-80
2021/07/12 13:48:16;;;;;;;8.45;7.75;;;;;;;27.17;61.41;99886.03;154023;1093;103187;-80
2021/07/12 13:51:23;;;;;;;9.53;8.60;;;;;;;27.35;62.07;99887.47;153969;1101;103303;-80
2021/07/12 13:54:28;;;;;;;9.85;8.95;;;;;;;27.50;61.44;99878.41;153988;1101;103200;-80
2021/07/12 13:57:33;;;;;;;8.93;8.13;;;;;;;27.62;61.63;99889.11;154174;1101;103124;-80
2021/07/12 14:00:41;;;;;;;10.53;9.53;;;;;;;27.79;61.67;99888.80;154020;1101;104031;-80
2021/07/12 14:03:46;;;;;;;10.87;9.97;;;;;;;27.94;61.30;99890.72;154111;1101;103208;-80
2021/07/12 14:06:51;;;;;;;12.40;11.37;;;;;;;28.01;61.10;99899.49;154063;1093;103259;-81
2021/07/12 14:09:56;;;;;;;12.80;11.60;;;;;;;27.99;60.43;99902.51;154161;1101;103133;-81
2021/07/12 14:13:03;;;;;;;12.55;11.35;;;;;;;27.98;61.06;99903.63;154105;1094;103097;-81
2021/07/12 14:16:08;;;;;;;12.50;11.40;;;;;;;27.99;60.38;99893.47;154068;1101;103115;-81
2021/07/12 14:19:13;;;;;;;12.03;10.93;;;;;;;27.98;60.84;99894.55;154110;1101;103235;-81
2021/07/12 14:22:18;;;;;;;11.40;10.40;;;;;;;27.99;60.22;99888.80;154211;1101;103192;-80
2021/07/12 14:25:23;;;;;;;11.60;10.60;;;;;;;28.04;60.51;99896.17;154135;1101;103128;-80
2021/07/12 14:28:29;;;;;;;12.30;11.20;;;;;;;28.05;60.36;99884.13;153985;1101;103212;-80
2021/07/12 14:31:34;;;;;;;12.23;11.13;;;;;;;28.05;60.32;99886.05;154004;1093;103133;-81